createdAt,value
2023-05-15T00:00:57.445Z,8.07
2023-05-15T00:03:25.989Z,8.40
2023-05-15T00:05:53.760Z,8.00
2023-05-15T00:08:21.276Z,8.07
2023-05-15T00:11:00.817Z,8.43
2023-05-15T00:13:29.979Z,9.17
2023-05-15T00:15:57.593Z,7.70
2023-05-15T00:18:25.378Z,8.47
2023-05-15T00:20:53.335Z,8.50
2023-05-15T00:23:20.468Z,9.10
2023-05-15T00:25:47.818Z,9.03
2023-05-15T00:28:14.979Z,8.40
2023-05-15T00:30:42.360Z,8.70
2023-05-15T00:33:09.887Z,8.33
2023-05-15T00:35:38.056Z,8.03
2023-05-15T00:38:05.291Z,9.17
2023-05-15T00:40:34.122Z,8.87
2023-05-15T00:43:02.501Z,8.57
2023-05-15T00:45:30.799Z,8.67
2023-05-15T00:47:59.051Z,10.00
2023-05-15T00:50:26.804Z,10.30
2023-05-15T00:52:55.324Z,9.93
2023-05-15T00:55:23.331Z,8.90
2023-05-15T00:57:52.569Z,10.20
2023-05-15T01:00:20.986Z,9.40
2023-05-15T01:02:48.388Z,9.50
2023-05-15T01:05:16.085Z,9.03
2023-05-15T01:08:06.684Z,10.90
2023-05-15T01:10:35.689Z,10.33
2023-05-15T01:13:04.672Z,10.10
2023-05-15T01:15:34.425Z,10.43
2023-05-15T01:18:01.801Z,10.90
2023-05-15T01:20:32.814Z,10.63
2023-05-15T01:23:11.167Z,11.33
2023-05-15T01:26:07.734Z,12.10
2023-05-15T01:28:43.301Z,11.57
2023-05-15T01:31:19.547Z,12.00
2023-05-15T01:33:53.169Z,12.93
2023-05-15T01:36:35.768Z,12.17
2023-05-15T01:39:05.362Z,12.90
2023-05-15T01:41:41.387Z,12.27
2023-05-15T01:44:17.146Z,13.20
2023-05-15T01:46:48.584Z,12.30
2023-05-15T01:49:19.151Z,13.80
2023-05-15T01:51:50.846Z,13.60
2023-05-15T01:54:19.518Z,13.70
2023-05-15T01:56:48.262Z,12.83
2023-05-15T01:59:17.750Z,13.17
2023-05-15T02:01:46.674Z,12.90
2023-05-15T02:04:15.571Z,13.10
2023-05-15T02:06:43.856Z,12.60
2023-05-15T02:09:11.104Z,12.63
2023-05-15T02:11:38.882Z,13.93
2023-05-15T02:14:32.050Z,13.60
2023-05-15T02:16:59.273Z,12.83
2023-05-15T02:19:27.605Z,12.73
2023-05-15T02:21:54.992Z,12.30
2023-05-15T02:24:22.216Z,12.10
2023-05-15T02:27:08.320Z,13.90
2023-05-15T02:29:54.625Z,12.80
2023-05-15T02:32:50.600Z,12.50
2023-05-15T02:35:33.760Z,12.90
2023-05-15T02:38:07.764Z,13.37
2023-05-15T02:40:37.536Z,12.07
2023-05-15T02:43:08.293Z,13.40
2023-05-15T02:45:36.641Z,12.57
2023-05-15T02:48:04.684Z,12.73
2023-05-15T02:50:32.030Z,14.33
2023-05-15T02:53:04.728Z,13.70
2023-05-15T02:55:31.947Z,14.53
2023-05-15T02:57:59.372Z,13.90
2023-05-15T03:00:26.606Z,16.07
2023-05-15T03:02:53.958Z,15.23
2023-05-15T03:05:21.323Z,14.90
2023-05-15T03:07:48.562Z,14.80
2023-05-15T03:10:15.847Z,14.47
2023-05-15T03:12:43.490Z,16.40
2023-05-15T03:15:11.339Z,13.30
2023-05-15T03:17:38.500Z,14.90
2023-05-15T03:20:06.405Z,15.90
2023-05-15T03:22:33.646Z,14.50
2023-05-15T03:25:01.845Z,14.57
2023-05-15T03:27:29.634Z,13.73
2023-05-15T03:29:57.152Z,14.57
2023-05-15T03:32:24.336Z,16.40
2023-05-15T03:34:51.525Z,15.20
2023-05-15T03:37:19.396Z,16.63
2023-05-15T03:39:46.576Z,17.77
2023-05-15T03:42:14.447Z,15.87
2023-05-15T03:44:41.752Z,16.77
2023-05-15T03:47:10.365Z,17.27
2023-05-15T03:49:38.745Z,16.43
2023-05-15T03:52:07.003Z,17.60
2023-05-15T03:54:34.906Z,16.50
2023-05-15T03:57:04.179Z,15.10
2023-05-15T03:59:31.491Z,15.90
2023-05-15T04:02:04.903Z,15.00
2023-05-15T04:04:32.996Z,15.00
2023-05-15T04:07:00.774Z,15.60
2023-05-15T04:09:28.086Z,17.57
2023-05-15T04:11:55.290Z,16.90
2023-05-15T04:14:22.501Z,18.70
2023-05-15T04:16:49.770Z,17.17
2023-05-15T04:19:17.435Z,16.83
2023-05-15T04:21:45.111Z,19.20
2023-05-15T04:24:12.464Z,17.60
2023-05-15T04:26:39.743Z,19.30
2023-05-15T04:29:07.335Z,19.13
2023-05-15T04:31:35.026Z,18.83
2023-05-15T04:34:03.860Z,19.50
2023-05-15T04:36:31.707Z,19.10
2023-05-15T04:38:59.052Z,18.70
2023-05-15T04:41:26.988Z,18.83
2023-05-15T04:43:54.327Z,19.33
2023-05-15T04:46:21.656Z,19.37
2023-05-15T04:48:49.399Z,18.73
2023-05-15T04:51:16.618Z,20.07
2023-05-15T04:53:44.197Z,19.87
2023-05-15T04:56:12.076Z,19.90
2023-05-15T04:58:39.244Z,20.50
2023-05-15T05:01:06.437Z,20.90
2023-05-15T05:03:33.926Z,20.50
2023-05-15T05:06:01.361Z,22.60
2023-05-15T05:08:29.111Z,22.33
2023-05-15T05:10:57.457Z,21.10
2023-05-15T05:13:24.655Z,22.63
2023-05-15T05:15:51.890Z,20.50
2023-05-15T05:18:19.452Z,21.73
2023-05-15T05:20:47.215Z,19.93
2023-05-15T05:23:15.037Z,21.43
2023-05-15T05:25:42.255Z,20.27
2023-05-15T05:28:09.448Z,20.23
2023-05-15T05:30:36.941Z,19.70
2023-05-15T05:33:04.259Z,19.63
2023-05-15T05:35:31.554Z,19.53
2023-05-15T05:37:59.084Z,20.73
2023-05-15T05:40:26.423Z,20.10
2023-05-15T05:42:53.928Z,18.97
2023-05-15T05:45:21.189Z,17.40
2023-05-15T05:47:48.472Z,19.90
2023-05-15T05:50:15.838Z,19.40
2023-05-15T05:52:47.358Z,20.93
2023-05-15T05:55:14.652Z,19.77
2023-05-15T05:57:42.630Z,19.10
2023-05-15T06:00:11.262Z,19.23
2023-05-15T06:02:40.504Z,17.60
2023-05-15T06:05:08.467Z,16.70
2023-05-15T06:07:35.847Z,17.27
2023-05-15T06:10:04.432Z,17.43
2023-05-15T06:12:31.877Z,17.17
2023-05-15T06:14:59.068Z,16.20
2023-05-15T06:17:26.262Z,17.00
2023-05-15T06:19:54.123Z,14.57
2023-05-15T06:22:21.979Z,15.40
2023-05-15T06:24:49.213Z,14.70
2023-05-15T06:27:16.402Z,15.13
2023-05-15T06:29:43.579Z,14.07
2023-05-15T06:32:10.837Z,12.90
2023-05-15T06:34:38.061Z,12.10
2023-05-15T06:37:05.245Z,11.07
2023-05-15T06:39:32.907Z,10.90
2023-05-15T06:42:01.363Z,11.30
2023-05-15T06:44:31.204Z,11.53
2023-05-15T06:46:59.700Z,11.17
2023-05-15T06:49:27.723Z,10.63
2023-05-15T06:51:56.023Z,9.90
2023-05-15T06:54:23.243Z,9.10
2023-05-15T06:56:50.644Z,9.10
2023-05-15T06:59:18.178Z,9.60
2023-05-15T07:01:45.522Z,8.90
2023-05-15T07:04:15.760Z,8.63
2023-05-15T07:06:43.658Z,8.30
2023-05-15T07:09:10.826Z,7.40
2023-05-15T07:11:38.814Z,7.90
2023-05-15T07:14:07.320Z,8.50
2023-05-15T07:16:34.493Z,7.50
2023-05-15T07:19:01.843Z,7.33
2023-05-15T07:21:29.059Z,8.13
2023-05-15T07:23:56.938Z,6.87
2023-05-15T07:26:32.823Z,7.37
2023-05-15T07:29:04.126Z,7.03
2023-05-15T07:31:33.517Z,6.33
2023-05-15T07:34:01.003Z,7.27
2023-05-15T07:36:28.226Z,6.90
2023-05-15T07:38:55.517Z,5.77
2023-05-15T07:41:23.217Z,5.80
2023-05-15T07:43:50.392Z,5.60
2023-05-15T07:46:17.988Z,5.50
2023-05-15T07:48:45.257Z,6.07
2023-05-15T07:51:12.399Z,5.30
2023-05-15T07:53:39.650Z,5.77
2023-05-15T07:56:06.941Z,5.37
2023-05-15T07:58:38.164Z,5.10
2023-05-15T08:01:05.930Z,4.10
2023-05-15T08:03:33.898Z,4.03
2023-05-15T08:06:01.494Z,3.40
2023-05-15T08:08:28.690Z,4.30
2023-05-15T08:10:56.113Z,3.53
2023-05-15T08:13:23.285Z,3.50
2023-05-15T08:15:50.561Z,3.23
2023-05-15T08:18:17.777Z,3.40
2023-05-15T08:20:45.838Z,3.73
2023-05-15T08:23:13.526Z,2.90
2023-05-15T08:25:41.164Z,2.50
2023-05-15T08:28:08.788Z,2.90
2023-05-15T08:30:36.292Z,2.63
2023-05-15T08:33:03.887Z,2.90
2023-05-15T08:35:31.511Z,2.33
2023-05-15T08:37:58.885Z,2.53
2023-05-15T08:40:38.515Z,2.67
2023-05-15T08:43:16.224Z,2.30
2023-05-15T08:45:43.897Z,2.57
2023-05-15T08:48:14.170Z,2.77
2023-05-15T08:50:44.025Z,2.90
2023-05-15T08:53:12.957Z,2.70
2023-05-15T08:55:40.809Z,2.93
2023-05-15T08:58:10.194Z,2.60
2023-05-15T09:00:37.883Z,2.43
2023-05-15T09:03:05.359Z,2.40
2023-05-15T09:05:33.340Z,2.37
2023-05-15T09:08:04.027Z,2.40
2023-05-15T09:10:32.739Z,2.67
2023-05-15T09:13:02.312Z,2.33
2023-05-15T09:15:30.686Z,1.97
2023-05-15T09:17:58.686Z,2.50
2023-05-15T09:20:26.771Z,2.30
2023-05-15T09:22:55.962Z,2.20
2023-05-15T09:25:39.619Z,2.70
2023-05-15T09:28:08.990Z,2.40
2023-05-15T09:30:40.046Z,2.70
2023-05-15T09:33:07.909Z,2.47
2023-05-15T09:35:39.043Z,2.47
2023-05-15T09:38:11.285Z,2.40
2023-05-15T09:40:39.489Z,2.37
2023-05-15T09:43:07.257Z,2.50
2023-05-15T09:45:34.889Z,2.80
2023-05-15T09:48:06.987Z,2.13
2023-05-15T09:50:37.302Z,2.70
2023-05-15T09:53:05.290Z,2.57
2023-05-15T09:55:34.690Z,2.50
2023-05-15T09:58:06.469Z,2.43
2023-05-15T10:00:34.347Z,2.30
2023-05-15T10:03:03.537Z,2.57
2023-05-15T10:05:42.561Z,2.67
2023-05-15T10:08:11.761Z,2.60
2023-05-15T10:10:39.198Z,2.23
2023-05-15T10:13:09.841Z,2.60
2023-05-15T10:15:38.704Z,2.50
2023-05-15T10:18:07.503Z,2.83
2023-05-15T10:20:35.935Z,2.67
2023-05-15T10:23:06.618Z,2.70
2023-05-15T10:25:57.880Z,2.60
2023-05-15T10:28:26.948Z,3.03
2023-05-15T10:30:55.815Z,2.97
2023-05-15T10:33:23.748Z,2.70
2023-05-15T10:35:52.613Z,2.83
2023-05-15T10:38:20.954Z,2.93
2023-05-15T10:40:48.552Z,2.83
2023-05-15T10:43:15.986Z,2.70
2023-05-15T10:45:43.962Z,3.40
2023-05-15T10:48:12.365Z,2.80
2023-05-15T10:50:40.879Z,2.90
2023-05-15T10:53:09.956Z,2.70
2023-05-15T10:55:38.366Z,2.40
2023-05-15T10:58:10.078Z,2.57
2023-05-15T11:00:45.080Z,2.43
2023-05-15T11:03:16.862Z,2.50
2023-05-15T11:06:06.850Z,2.40
2023-05-15T11:08:34.613Z,2.37
2023-05-15T11:11:01.963Z,2.67
2023-05-15T11:14:04.820Z,2.50
2023-05-15T11:17:00.547Z,2.60
2023-05-15T11:19:34.712Z,2.80
2023-05-15T11:22:15.733Z,2.67
2023-05-15T11:25:01.025Z,2.20
2023-05-15T11:27:30.509Z,2.80
2023-05-15T11:30:11.568Z,3.17
2023-05-15T11:32:46.581Z,2.33
2023-05-15T11:35:14.139Z,3.20
2023-05-15T11:38:08.687Z,2.30
2023-05-15T11:40:47.211Z,2.60
2023-05-15T11:43:20.539Z,2.20
2023-05-15T11:45:51.456Z,2.50
2023-05-15T11:48:19.182Z,2.77
2023-05-15T11:50:47.313Z,2.47
2023-05-15T11:53:15.500Z,2.40
2023-05-15T11:55:44.116Z,2.50
2023-05-15T11:58:13.615Z,2.30
2023-05-15T12:00:42.701Z,1.90
2023-05-15T12:03:36.481Z,2.20
2023-05-15T12:06:07.163Z,2.17
2023-05-15T12:08:35.995Z,2.50
2023-05-15T12:11:04.639Z,2.70
2023-05-15T12:13:33.290Z,2.80
2023-05-15T12:16:03.299Z,2.80
2023-05-15T12:18:32.264Z,2.73
2023-05-15T12:21:00.917Z,3.70
2023-05-15T12:23:28.929Z,3.70
2023-05-15T12:26:01.079Z,3.10
2023-05-15T12:28:30.116Z,3.30
2023-05-15T12:30:58.380Z,2.87
2023-05-15T12:33:28.940Z,2.50
2023-05-15T12:36:01.743Z,2.10
2023-05-15T12:38:30.449Z,2.30
2023-05-15T12:40:58.333Z,3.97
2023-05-15T12:43:26.157Z,3.30
2023-05-15T12:45:54.982Z,4.73
2023-05-15T12:48:22.349Z,4.63
2023-05-15T12:50:50.110Z,4.70
2023-05-15T12:53:17.865Z,5.73
2023-05-15T12:55:46.343Z,4.50
2023-05-15T12:58:15.203Z,4.23
2023-05-15T13:00:46.670Z,4.03
2023-05-15T13:03:14.574Z,6.53
2023-05-15T13:05:46.103Z,5.80
2023-05-15T13:08:18.172Z,6.17
2023-05-15T13:10:46.658Z,6.10
2023-05-15T13:13:15.048Z,5.80
2023-05-15T13:15:45.893Z,6.73
2023-05-15T13:18:14.869Z,5.50
2023-05-15T13:20:43.633Z,6.80
2023-05-15T13:23:13.162Z,7.07
2023-05-15T13:25:40.492Z,7.30
2023-05-15T13:28:10.504Z,7.03
2023-05-15T13:30:47.108Z,7.07
2023-05-15T13:33:14.632Z,6.70
2023-05-15T13:38:29.466Z,6.77
2023-05-15T13:40:56.558Z,6.97
2023-05-15T13:43:26.456Z,8.13
2023-05-15T13:45:54.797Z,7.30
2023-05-15T13:48:22.396Z,8.23
2023-05-15T13:50:49.870Z,7.30
2023-05-15T13:53:17.883Z,6.70
2023-05-15T13:55:46.612Z,6.20
2023-05-15T13:58:13.917Z,6.40
2023-05-15T14:00:43.243Z,7.37
2023-05-15T14:03:13.313Z,7.50
2023-05-15T14:05:42.443Z,7.70
2023-05-15T14:08:10.088Z,10.30
2023-05-15T14:10:37.806Z,9.50
2023-05-15T14:13:05.625Z,10.07
2023-05-15T14:15:32.687Z,9.40
2023-05-15T14:18:02.076Z,8.20
2023-05-15T14:20:29.514Z,9.53
2023-05-15T14:22:57.597Z,6.80
2023-05-15T14:25:51.073Z,6.70
2023-05-15T14:28:18.655Z,7.27
2023-05-15T14:30:46.409Z,7.43
2023-05-15T14:33:13.997Z,7.40
2023-05-15T14:35:41.676Z,6.80
2023-05-15T14:38:09.178Z,6.50
2023-05-15T14:40:36.708Z,7.33
2023-05-15T14:43:04.267Z,8.30
2023-05-15T14:45:31.752Z,7.90
2023-05-15T14:48:00.480Z,7.90
2023-05-15T14:50:28.503Z,6.77
2023-05-15T14:52:56.190Z,7.40
2023-05-15T14:55:23.930Z,8.23
2023-05-15T14:57:51.544Z,8.63
2023-05-15T15:00:19.937Z,6.73
2023-05-15T15:02:48.428Z,6.20
2023-05-15T15:05:19.422Z,6.50
2023-05-15T15:08:03.596Z,6.80
2023-05-15T15:10:31.980Z,7.30
2023-05-15T15:13:02.309Z,6.23
2023-05-15T15:15:30.922Z,6.83
2023-05-15T15:17:58.726Z,6.00
2023-05-15T15:20:27.003Z,5.97
2023-05-15T15:22:55.560Z,6.10
2023-05-15T15:25:24.190Z,6.30
2023-05-15T15:27:51.720Z,5.87
2023-05-15T15:30:19.471Z,5.37
2023-05-15T15:32:47.072Z,5.43
2023-05-15T15:35:15.043Z,6.00
2023-05-15T15:37:42.645Z,5.20
2023-05-15T15:40:11.870Z,4.43
2023-05-15T15:42:39.134Z,5.33
2023-05-15T15:45:06.779Z,5.10
2023-05-15T15:47:34.644Z,4.90
2023-05-15T15:50:02.663Z,4.70
2023-05-15T15:52:30.204Z,4.50
2023-05-15T15:54:57.273Z,4.83
2023-05-15T15:57:24.539Z,4.27
2023-05-15T15:59:52.235Z,4.40
2023-05-15T16:02:20.832Z,4.70
2023-05-15T16:04:48.056Z,4.67
2023-05-15T16:07:15.982Z,4.33
2023-05-15T16:09:43.132Z,4.50
2023-05-15T16:12:10.291Z,4.50
2023-05-15T16:14:39.101Z,3.60
2023-05-15T16:17:06.316Z,4.03
2023-05-15T16:19:59.596Z,4.30
2023-05-15T16:22:30.164Z,4.27
2023-05-15T16:24:58.174Z,4.10
2023-05-15T16:27:25.314Z,4.07
2023-05-15T16:29:52.981Z,4.50
2023-05-15T16:32:21.151Z,5.10
2023-05-15T16:34:48.515Z,4.40
2023-05-15T16:37:16.545Z,5.17
2023-05-15T16:39:44.062Z,4.60
2023-05-15T16:42:11.554Z,4.57
2023-05-15T16:44:38.755Z,4.40
2023-05-15T16:47:05.996Z,3.53
2023-05-15T16:49:33.528Z,3.90
2023-05-15T16:52:00.786Z,4.77
2023-05-15T16:54:28.462Z,3.70
2023-05-15T16:56:56.011Z,3.73
2023-05-15T16:59:23.886Z,4.10
2023-05-15T17:01:51.482Z,4.53
2023-05-15T17:04:19.084Z,3.70
2023-05-15T17:06:46.256Z,3.60
2023-05-15T17:09:13.708Z,4.27
2023-05-15T17:11:41.538Z,3.50
2023-05-15T17:14:09.055Z,3.60
2023-05-15T17:16:36.380Z,3.83
2023-05-15T17:19:04.319Z,3.50
2023-05-15T17:21:31.849Z,3.53
2023-05-15T17:23:59.468Z,4.40
2023-05-15T17:26:26.981Z,4.27
2023-05-15T17:28:54.256Z,4.03
2023-05-15T17:31:21.536Z,4.30
2023-05-15T17:33:49.233Z,3.43
2023-05-15T17:36:20.234Z,4.30
2023-05-15T17:38:47.589Z,4.40
2023-05-15T17:41:14.962Z,4.20
2023-05-15T17:43:42.340Z,4.27
2023-05-15T17:46:12.247Z,4.30
2023-05-15T17:48:40.566Z,5.07
2023-05-15T17:51:07.953Z,4.43
2023-05-15T17:53:35.431Z,4.50
2023-05-15T17:56:03.694Z,4.60
2023-05-15T17:58:31.202Z,4.97
2023-05-15T18:00:59.215Z,3.97
2023-05-15T18:03:27.085Z,4.80
2023-05-15T18:05:55.119Z,3.80
2023-05-15T18:08:22.499Z,4.30
2023-05-15T18:10:49.909Z,4.77
2023-05-15T18:13:18.718Z,4.10
2023-05-15T18:15:46.153Z,4.30
2023-05-15T18:18:14.454Z,4.20
2023-05-15T18:20:41.750Z,4.90
2023-05-15T18:23:09.185Z,4.73
2023-05-15T18:25:36.934Z,4.43
2023-05-15T18:28:04.593Z,4.10
2023-05-15T18:30:31.952Z,4.53
2023-05-15T18:32:59.309Z,4.20
2023-05-15T18:35:29.579Z,4.20
2023-05-15T18:37:56.902Z,4.67
2023-05-15T18:40:26.539Z,4.60
2023-05-15T18:42:55.287Z,4.67
2023-05-15T18:45:23.760Z,5.00
2023-05-15T18:47:55.067Z,5.07
2023-05-15T18:50:26.592Z,4.10
2023-05-15T18:52:54.657Z,5.70
2023-05-15T18:55:22.652Z,5.23
2023-05-15T18:57:50.524Z,5.00
2023-05-15T19:00:26.649Z,5.30
2023-05-15T19:03:05.127Z,5.70
2023-05-15T19:05:34.413Z,5.57
2023-05-15T19:08:02.314Z,5.70
2023-05-15T19:10:30.509Z,5.40
2023-05-15T19:12:58.508Z,5.67
2023-05-15T19:15:26.591Z,5.80
2023-05-15T19:17:54.885Z,6.13
2023-05-15T19:20:22.289Z,5.53
2023-05-15T19:22:49.790Z,6.43
2023-05-15T19:25:17.284Z,5.70
2023-05-15T19:27:44.703Z,7.13
2023-05-15T19:30:12.592Z,6.40
2023-05-15T19:32:40.104Z,6.40
2023-05-15T19:35:07.822Z,7.20
2023-05-15T19:37:36.219Z,7.00
2023-05-15T19:40:04.213Z,7.40
2023-05-15T19:42:31.532Z,8.70
2023-05-15T19:44:59.237Z,7.70
2023-05-15T19:47:30.697Z,7.50
2023-05-15T19:49:58.057Z,6.60
2023-05-15T19:52:25.588Z,5.83
2023-05-15T19:54:52.879Z,6.37
2023-05-15T19:57:20.183Z,6.10
2023-05-15T19:59:48.065Z,6.80
2023-05-15T20:02:15.810Z,5.57
2023-05-15T20:04:43.517Z,5.27
2023-05-15T20:07:10.933Z,5.27
2023-05-15T20:09:39.484Z,4.93
2023-05-15T20:12:07.446Z,4.30
2023-05-15T20:14:35.176Z,4.70
2023-05-15T20:17:03.587Z,4.50
2023-05-15T20:19:33.851Z,4.50
2023-05-15T20:22:02.196Z,4.17
2023-05-15T20:24:30.179Z,3.87
2023-05-15T20:26:57.626Z,3.53
2023-05-15T20:29:27.977Z,3.53
2023-05-15T20:31:55.414Z,4.07
2023-05-15T20:34:23.323Z,3.80
2023-05-15T20:36:52.728Z,3.77
2023-05-15T20:39:20.445Z,3.60
2023-05-15T20:41:47.874Z,3.70
2023-05-15T20:44:15.096Z,3.63
2023-05-15T20:46:45.180Z,3.67
2023-05-15T20:49:12.461Z,4.20
2023-05-15T20:51:41.573Z,3.30
2023-05-15T20:54:08.741Z,3.50
2023-05-15T20:56:36.059Z,3.63
2023-05-15T20:59:03.960Z,3.27
2023-05-15T21:01:31.307Z,3.70
2023-05-15T21:03:58.623Z,2.90
2023-05-15T21:06:25.927Z,3.07
2023-05-15T21:08:53.117Z,3.23
2023-05-15T21:11:20.273Z,3.33
2023-05-15T21:13:48.118Z,2.97
2023-05-15T21:16:15.375Z,3.90
2023-05-15T21:18:42.643Z,3.03
2023-05-15T21:21:10.083Z,3.20
2023-05-15T21:23:37.380Z,2.90
2023-05-15T21:26:04.624Z,3.20
2023-05-15T21:28:32.004Z,2.70
2023-05-15T21:31:06.450Z,2.10
2023-05-15T21:33:35.557Z,2.53
2023-05-15T21:36:06.138Z,2.60
2023-05-15T21:38:57.904Z,2.70
2023-05-15T21:41:26.233Z,2.30
2023-05-15T21:43:53.381Z,2.83
2023-05-15T21:46:20.564Z,2.40
2023-05-15T21:48:48.008Z,3.23
2023-05-15T21:51:15.643Z,2.50
2023-05-15T21:53:42.910Z,2.90
2023-05-15T21:56:10.791Z,2.00
2023-05-15T21:58:37.973Z,2.33
2023-05-15T22:01:05.324Z,2.20
2023-05-15T22:03:32.554Z,2.27
2023-05-15T22:05:59.796Z,2.40
2023-05-15T22:08:27.008Z,2.00
2023-05-15T22:10:54.292Z,1.83
2023-05-15T22:13:21.507Z,2.20
2023-05-15T22:15:48.663Z,2.00
2023-05-15T22:18:16.205Z,1.90
2023-05-15T22:20:47.788Z,2.30
2023-05-15T22:23:16.390Z,2.33
2023-05-15T22:25:43.684Z,1.93
2023-05-15T22:28:10.826Z,1.83
2023-05-15T22:30:38.613Z,3.00
2023-05-15T22:33:05.861Z,1.87
2023-05-15T22:35:33.047Z,2.20
2023-05-15T22:38:00.364Z,1.93
2023-05-15T22:40:27.946Z,2.00
2023-05-15T22:42:55.309Z,2.67
2023-05-15T22:45:23.275Z,2.30
2023-05-15T22:47:51.054Z,1.70
2023-05-15T22:50:18.449Z,1.70
2023-05-15T22:52:45.717Z,1.63
2023-05-15T22:55:13.646Z,1.70
2023-05-15T22:57:43.907Z,1.53
2023-05-15T23:00:11.969Z,1.63
2023-05-15T23:02:42.530Z,2.03
2023-05-15T23:05:10.816Z,2.00
2023-05-15T23:07:37.980Z,1.87
2023-05-15T23:10:05.693Z,2.20
2023-05-15T23:12:33.214Z,1.90
2023-05-15T23:15:00.362Z,1.97
2023-05-15T23:17:27.694Z,1.70
2023-05-15T23:19:54.909Z,1.63
2023-05-15T23:22:22.315Z,2.10
2023-05-15T23:24:49.985Z,2.10
2023-05-15T23:27:17.139Z,1.70
2023-05-15T23:29:44.403Z,1.90
2023-05-15T23:32:11.543Z,2.00
2023-05-15T23:34:38.806Z,1.60
2023-05-15T23:37:06.528Z,2.03
2023-05-15T23:39:33.760Z,1.93
2023-05-15T23:42:01.010Z,2.00
2023-05-15T23:44:28.987Z,2.03
2023-05-15T23:46:56.298Z,2.10
2023-05-15T23:49:24.131Z,1.80
2023-05-15T23:51:51.369Z,1.70
2023-05-15T23:54:18.621Z,1.90
2023-05-15T23:56:45.776Z,2.17
2023-05-15T23:59:14.489Z,1.70
